sensor_id;sensor_type;location;lat;lon;timestamp;P1;durP1;ratioP1;P2;durP2;ratioP2
57832;SDS011;43667;53.036;6.740;2023-06-19T00:00:31;6.45;;;5.85;;
57832;SDS011;43667;53.036;6.740;2023-06-19T00:02:57;7.40;;;6.70;;
57832;SDS011;43667;53.036;6.740;2023-06-19T00:05:22;6.47;;;5.88;;
57832;SDS011;43667;53.036;6.740;2023-06-19T00:07:49;7.03;;;6.13;;
57832;SDS011;43667;53.036;6.740;2023-06-19T00:10:15;9.55;;;6.03;;
57832;SDS011;43667;53.036;6.740;2023-06-19T00:12:41;10.38;;;6.00;;
57832;SDS011;43667;53.036;6.740;2023-06-19T00:15:07;8.93;;;6.43;;
57832;SDS011;43667;53.036;6.740;2023-06-19T00:17:34;10.25;;;6.63;;
57832;SDS011;43667;53.036;6.740;2023-06-19T00:20:02;7.18;;;5.95;;
57832;SDS011;43667;53.036;6.740;2023-06-19T00:22:29;9.13;;;5.63;;
57832;SDS011;43667;53.036;6.740;2023-06-19T00:24:54;7.03;;;5.90;;
57832;SDS011;43667;53.036;6.740;2023-06-19T00:27:20;6.68;;;5.60;;
57832;SDS011;43667;53.036;6.740;2023-06-19T00:29:45;7.75;;;5.97;;
57832;SDS011;43667;53.036;6.740;2023-06-19T00:32:11;8.32;;;6.15;;
57832;SDS011;43667;53.036;6.740;2023-06-19T00:34:37;9.20;;;5.85;;
57832;SDS011;43667;53.036;6.740;2023-06-19T00:37:03;6.18;;;5.57;;
57832;SDS011;43667;53.036;6.740;2023-06-19T00:39:29;7.35;;;5.93;;
57832;SDS011;43667;53.036;6.740;2023-06-19T00:41:55;8.35;;;5.70;;
57832;SDS011;43667;53.036;6.740;2023-06-19T00:44:21;8.73;;;5.70;;
57832;SDS011;43667;53.036;6.740;2023-06-19T00:46:47;8.75;;;5.70;;
57832;SDS011;43667;53.036;6.740;2023-06-19T00:49:16;6.68;;;6.05;;
57832;SDS011;43667;53.036;6.740;2023-06-19T00:51:42;7.40;;;5.95;;
57832;SDS011;43667;53.036;6.740;2023-06-19T00:54:07;7.97;;;5.32;;
57832;SDS011;43667;53.036;6.740;2023-06-19T00:56:33;6.72;;;6.03;;
57832;SDS011;43667;53.036;6.740;2023-06-19T00:59:02;6.75;;;5.20;;
57832;SDS011;43667;53.036;6.740;2023-06-19T01:01:37;8.68;;;6.10;;
57832;SDS011;43667;53.036;6.740;2023-06-19T01:04:03;6.55;;;5.47;;
57832;SDS011;43667;53.036;6.740;2023-06-19T01:06:30;8.07;;;5.70;;
57832;SDS011;43667;53.036;6.740;2023-06-19T01:09:07;11.40;;;5.78;;
57832;SDS011;43667;53.036;6.740;2023-06-19T01:11:52;6.60;;;5.00;;
57832;SDS011;43667;53.036;6.740;2023-06-19T01:14:24;6.20;;;5.60;;
57832;SDS011;43667;53.036;6.740;2023-06-19T01:16:53;6.72;;;5.60;;
57832;SDS011;43667;53.036;6.740;2023-06-19T01:19:20;7.72;;;5.80;;
57832;SDS011;43667;53.036;6.740;2023-06-19T01:21:46;8.60;;;6.18;;
57832;SDS011;43667;53.036;6.740;2023-06-19T01:24:13;9.38;;;5.90;;
57832;SDS011;43667;53.036;6.740;2023-06-19T01:26:39;7.45;;;5.90;;
57832;SDS011;43667;53.036;6.740;2023-06-19T01:29:08;6.50;;;5.22;;
57832;SDS011;43667;53.036;6.740;2023-06-19T01:31:38;8.35;;;5.97;;
57832;SDS011;43667;53.036;6.740;2023-06-19T01:34:22;6.45;;;5.65;;
57832;SDS011;43667;53.036;6.740;2023-06-19T01:36:50;7.05;;;5.93;;
57832;SDS011;43667;53.036;6.740;2023-06-19T01:39:17;5.78;;;5.13;;
57832;SDS011;43667;53.036;6.740;2023-06-19T01:41:44;8.27;;;5.85;;
57832;SDS011;43667;53.036;6.740;2023-06-19T01:44:11;6.40;;;5.45;;
57832;SDS011;43667;53.036;6.740;2023-06-19T01:46:37;9.27;;;6.35;;
57832;SDS011;43667;53.036;6.740;2023-06-19T01:49:05;6.55;;;5.85;;
57832;SDS011;43667;53.036;6.740;2023-06-19T01:51:32;6.88;;;5.50;;
57832;SDS011;43667;53.036;6.740;2023-06-19T01:53:58;10.80;;;6.10;;
57832;SDS011;43667;53.036;6.740;2023-06-19T01:56:23;8.35;;;6.20;;
57832;SDS011;43667;53.036;6.740;2023-06-19T01:58:49;7.03;;;5.97;;
57832;SDS011;43667;53.036;6.740;2023-06-19T02:01:15;6.90;;;5.45;;
57832;SDS011;43667;53.036;6.740;2023-06-19T02:03:43;8.00;;;6.28;;
57832;SDS011;43667;53.036;6.740;2023-06-19T02:06:09;6.80;;;5.53;;
57832;SDS011;43667;53.036;6.740;2023-06-19T02:08:34;6.88;;;6.18;;
57832;SDS011;43667;53.036;6.740;2023-06-19T02:11:00;9.25;;;5.88;;
57832;SDS011;43667;53.036;6.740;2023-06-19T02:13:25;6.32;;;5.60;;
57832;SDS011;43667;53.036;6.740;2023-06-19T02:15:51;6.45;;;5.78;;
57832;SDS011;43667;53.036;6.740;2023-06-19T02:18:17;6.90;;;6.20;;
57832;SDS011;43667;53.036;6.740;2023-06-19T02:20:42;6.50;;;5.90;;
57832;SDS011;43667;53.036;6.740;2023-06-19T02:23:08;6.88;;;5.72;;
57832;SDS011;43667;53.036;6.740;2023-06-19T02:25:33;6.22;;;5.60;;
57832;SDS011;43667;53.036;6.740;2023-06-19T02:28:00;6.55;;;5.75;;
57832;SDS011;43667;53.036;6.740;2023-06-19T02:30:26;6.25;;;5.53;;
57832;SDS011;43667;53.036;6.740;2023-06-19T02:32:51;6.15;;;5.55;;
57832;SDS011;43667;53.036;6.740;2023-06-19T02:35:17;6.75;;;5.90;;
57832;SDS011;43667;53.036;6.740;2023-06-19T02:37:42;9.13;;;5.93;;
57832;SDS011;43667;53.036;6.740;2023-06-19T02:40:09;7.60;;;5.80;;
57832;SDS011;43667;53.036;6.740;2023-06-19T02:42:35;6.82;;;6.07;;
57832;SDS011;43667;53.036;6.740;2023-06-19T02:45:01;8.88;;;5.28;;
57832;SDS011;43667;53.036;6.740;2023-06-19T02:47:32;7.60;;;5.57;;
57832;SDS011;43667;53.036;6.740;2023-06-19T02:49:58;10.48;;;5.32;;
57832;SDS011;43667;53.036;6.740;2023-06-19T02:52:25;7.15;;;5.60;;
57832;SDS011;43667;53.036;6.740;2023-06-19T02:54:50;7.80;;;5.75;;
57832;SDS011;43667;53.036;6.740;2023-06-19T02:57:16;7.82;;;5.70;;
57832;SDS011;43667;53.036;6.740;2023-06-19T02:59:42;6.78;;;5.55;;
57832;SDS011;43667;53.036;6.740;2023-06-19T03:02:07;6.80;;;5.60;;
57832;SDS011;43667;53.036;6.740;2023-06-19T03:04:33;9.48;;;5.50;;
57832;SDS011;43667;53.036;6.740;2023-06-19T03:06:58;8.05;;;5.82;;
57832;SDS011;43667;53.036;6.740;2023-06-19T03:09:24;8.70;;;6.30;;
57832;SDS011;43667;53.036;6.740;2023-06-19T03:11:52;6.53;;;5.93;;
57832;SDS011;43667;53.036;6.740;2023-06-19T03:14:18;12.48;;;5.55;;
57832;SDS011;43667;53.036;6.740;2023-06-19T03:16:44;10.20;;;5.60;;
57832;SDS011;43667;53.036;6.740;2023-06-19T03:19:09;6.57;;;5.97;;
57832;SDS011;43667;53.036;6.740;2023-06-19T03:21:35;9.60;;;5.90;;
57832;SDS011;43667;53.036;6.740;2023-06-19T03:24:00;10.57;;;5.82;;
57832;SDS011;43667;53.036;6.740;2023-06-19T03:26:26;11.32;;;5.45;;
57832;SDS011;43667;53.036;6.740;2023-06-19T03:28:51;6.65;;;5.80;;
57832;SDS011;43667;53.036;6.740;2023-06-19T03:31:17;11.75;;;6.07;;
57832;SDS011;43667;53.036;6.740;2023-06-19T03:33:43;7.00;;;5.78;;
57832;SDS011;43667;53.036;6.740;2023-06-19T03:36:09;6.47;;;5.82;;
57832;SDS011;43667;53.036;6.740;2023-06-19T03:38:34;6.47;;;5.25;;
57832;SDS011;43667;53.036;6.740;2023-06-19T03:41:00;9.18;;;5.15;;
57832;SDS011;43667;53.036;6.740;2023-06-19T03:43:25;6.68;;;5.75;;
57832;SDS011;43667;53.036;6.740;2023-06-19T03:45:51;7.68;;;5.43;;
57832;SDS011;43667;53.036;6.740;2023-06-19T03:48:17;5.63;;;5.13;;
57832;SDS011;43667;53.036;6.740;2023-06-19T03:50:43;8.13;;;5.90;;
57832;SDS011;43667;53.036;6.740;2023-06-19T03:53:08;7.93;;;5.50;;
57832;SDS011;43667;53.036;6.740;2023-06-19T03:55:34;6.07;;;5.47;;
57832;SDS011;43667;53.036;6.740;2023-06-19T03:58:00;5.20;;;4.72;;
57832;SDS011;43667;53.036;6.740;2023-06-19T04:00:25;8.30;;;5.65;;
57832;SDS011;43667;53.036;6.740;2023-06-19T04:02:51;9.85;;;5.57;;
57832;SDS011;43667;53.036;6.740;2023-06-19T04:05:16;7.43;;;5.50;;
57832;SDS011;43667;53.036;6.740;2023-06-19T04:07:43;6.65;;;4.85;;
57832;SDS011;43667;53.036;6.740;2023-06-19T04:10:12;6.32;;;5.32;;
57832;SDS011;43667;53.036;6.740;2023-06-19T04:12:37;6.53;;;4.72;;
57832;SDS011;43667;53.036;6.740;2023-06-19T04:15:05;6.57;;;4.82;;
57832;SDS011;43667;53.036;6.740;2023-06-19T04:17:31;5.28;;;4.57;;
57832;SDS011;43667;53.036;6.740;2023-06-19T04:19:59;7.78;;;4.95;;
57832;SDS011;43667;53.036;6.740;2023-06-19T04:22:31;5.30;;;4.80;;
57832;SDS011;43667;53.036;6.740;2023-06-19T04:24:57;4.82;;;4.43;;
57832;SDS011;43667;53.036;6.740;2023-06-19T04:27:23;6.43;;;4.05;;
57832;SDS011;43667;53.036;6.740;2023-06-19T04:29:48;4.53;;;3.80;;
57832;SDS011;43667;53.036;6.740;2023-06-19T04:32:17;4.80;;;3.67;;
57832;SDS011;43667;53.036;6.740;2023-06-19T04:34:43;6.93;;;3.65;;
57832;SDS011;43667;53.036;6.740;2023-06-19T04:37:10;5.30;;;3.80;;
57832;SDS011;43667;53.036;6.740;2023-06-19T04:39:36;6.18;;;3.40;;
57832;SDS011;43667;53.036;6.740;2023-06-19T04:42:02;7.82;;;3.70;;
57832;SDS011;43667;53.036;6.740;2023-06-19T04:44:28;6.95;;;3.97;;
57832;SDS011;43667;53.036;6.740;2023-06-19T04:46:59;4.60;;;3.45;;
57832;SDS011;43667;53.036;6.740;2023-06-19T04:49:29;4.55;;;3.60;;
57832;SDS011;43667;53.036;6.740;2023-06-19T04:51:56;4.35;;;3.35;;
57832;SDS011;43667;53.036;6.740;2023-06-19T04:54:22;3.80;;;3.40;;
57832;SDS011;43667;53.036;6.740;2023-06-19T04:56:48;3.72;;;3.08;;
57832;SDS011;43667;53.036;6.740;2023-06-19T04:59:13;3.45;;;2.80;;
57832;SDS011;43667;53.036;6.740;2023-06-19T05:01:43;3.08;;;2.78;;
57832;SDS011;43667;53.036;6.740;2023-06-19T05:04:09;8.20;;;3.17;;
57832;SDS011;43667;53.036;6.740;2023-06-19T05:06:36;4.68;;;3.13;;
57832;SDS011;43667;53.036;6.740;2023-06-19T05:09:02;4.15;;;2.60;;
57832;SDS011;43667;53.036;6.740;2023-06-19T05:11:29;4.20;;;2.47;;
57832;SDS011;43667;53.036;6.740;2023-06-19T05:13:54;6.72;;;3.00;;
57832;SDS011;43667;53.036;6.740;2023-06-19T05:16:20;6.28;;;2.90;;
57832;SDS011;43667;53.036;6.740;2023-06-19T05:18:48;3.42;;;2.80;;
57832;SDS011;43667;53.036;6.740;2023-06-19T05:21:14;4.00;;;2.97;;
57832;SDS011;43667;53.036;6.740;2023-06-19T05:23:40;3.97;;;2.67;;
57832;SDS011;43667;53.036;6.740;2023-06-19T05:26:05;4.60;;;3.17;;
57832;SDS011;43667;53.036;6.740;2023-06-19T05:28:31;3.95;;;2.72;;
57832;SDS011;43667;53.036;6.740;2023-06-19T05:30:57;4.22;;;2.90;;
57832;SDS011;43667;53.036;6.740;2023-06-19T05:33:22;6.88;;;3.00;;
57832;SDS011;43667;53.036;6.740;2023-06-19T05:35:48;3.30;;;3.00;;
57832;SDS011;43667;53.036;6.740;2023-06-19T05:38:17;5.45;;;3.40;;
57832;SDS011;43667;53.036;6.740;2023-06-19T05:40:44;4.25;;;2.92;;
57832;SDS011;43667;53.036;6.740;2023-06-19T05:43:09;3.45;;;2.70;;
57832;SDS011;43667;53.036;6.740;2023-06-19T05:45:35;3.65;;;3.20;;
57832;SDS011;43667;53.036;6.740;2023-06-19T05:48:01;3.40;;;3.10;;
57832;SDS011;43667;53.036;6.740;2023-06-19T05:50:26;6.43;;;3.00;;
57832;SDS011;43667;53.036;6.740;2023-06-19T05:52:52;5.18;;;3.60;;
57832;SDS011;43667;53.036;6.740;2023-06-19T05:55:17;3.90;;;3.42;;
57832;SDS011;43667;53.036;6.740;2023-06-19T05:57:43;4.72;;;3.75;;
57832;SDS011;43667;53.036;6.740;2023-06-19T06:00:09;3.45;;;3.15;;
57832;SDS011;43667;53.036;6.740;2023-06-19T06:02:39;3.45;;;3.15;;
57832;SDS011;43667;53.036;6.740;2023-06-19T06:05:06;6.88;;;3.72;;
57832;SDS011;43667;53.036;6.740;2023-06-19T06:07:33;4.78;;;3.65;;
57832;SDS011;43667;53.036;6.740;2023-06-19T06:09:59;4.57;;;4.18;;
57832;SDS011;43667;53.036;6.740;2023-06-19T06:12:25;5.55;;;3.42;;
57832;SDS011;43667;53.036;6.740;2023-06-19T06:14:50;5.60;;;3.90;;
57832;SDS011;43667;53.036;6.740;2023-06-19T06:17:16;4.13;;;3.78;;
57832;SDS011;43667;53.036;6.740;2023-06-19T06:19:41;3.55;;;3.25;;
57832;SDS011;43667;53.036;6.740;2023-06-19T06:22:07;5.03;;;3.60;;
57832;SDS011;43667;53.036;6.740;2023-06-19T06:24:33;7.30;;;3.33;;
57832;SDS011;43667;53.036;6.740;2023-06-19T06:26:58;4.75;;;3.50;;
57832;SDS011;43667;53.036;6.740;2023-06-19T06:29:24;3.90;;;2.95;;
57832;SDS011;43667;53.036;6.740;2023-06-19T06:32:02;3.80;;;2.90;;
57832;SDS011;43667;53.036;6.740;2023-06-19T06:34:34;3.42;;;2.90;;
57832;SDS011;43667;53.036;6.740;2023-06-19T06:37:03;3.30;;;3.00;;
57832;SDS011;43667;53.036;6.740;2023-06-19T06:39:29;3.95;;;3.00;;
57832;SDS011;43667;53.036;6.740;2023-06-19T06:41:54;2.70;;;2.50;;
57832;SDS011;43667;53.036;6.740;2023-06-19T06:44:20;3.33;;;2.53;;
57832;SDS011;43667;53.036;6.740;2023-06-19T06:46:46;3.70;;;3.28;;
57832;SDS011;43667;53.036;6.740;2023-06-19T06:49:11;2.72;;;2.53;;
57832;SDS011;43667;53.036;6.740;2023-06-19T06:51:37;5.10;;;3.10;;
57832;SDS011;43667;53.036;6.740;2023-06-19T06:54:03;4.25;;;3.00;;
57832;SDS011;43667;53.036;6.740;2023-06-19T06:56:28;4.22;;;3.55;;
57832;SDS011;43667;53.036;6.740;2023-06-19T06:58:54;4.70;;;4.30;;
57832;SDS011;43667;53.036;6.740;2023-06-19T07:01:20;5.97;;;5.38;;
57832;SDS011;43667;53.036;6.740;2023-06-19T07:03:45;9.43;;;6.22;;
57832;SDS011;43667;53.036;6.740;2023-06-19T07:06:11;6.00;;;5.40;;
57832;SDS011;43667;53.036;6.740;2023-06-19T07:08:37;9.02;;;6.07;;
57832;SDS011;43667;53.036;6.740;2023-06-19T07:11:03;7.43;;;6.72;;
57832;SDS011;43667;53.036;6.740;2023-06-19T07:13:29;7.70;;;6.10;;
57832;SDS011;43667;53.036;6.740;2023-06-19T07:15:54;6.40;;;5.68;;
57832;SDS011;43667;53.036;6.740;2023-06-19T07:18:20;6.60;;;5.93;;
57832;SDS011;43667;53.036;6.740;2023-06-19T07:20:45;8.40;;;7.07;;
57832;SDS011;43667;53.036;6.740;2023-06-19T07:23:11;10.52;;;9.30;;
57832;SDS011;43667;53.036;6.740;2023-06-19T07:25:36;11.45;;;10.13;;
57832;SDS011;43667;53.036;6.740;2023-06-19T07:28:02;10.68;;;9.10;;
57832;SDS011;43667;53.036;6.740;2023-06-19T07:30:29;12.65;;;9.75;;
57832;SDS011;43667;53.036;6.740;2023-06-19T07:32:55;10.80;;;9.70;;
57832;SDS011;43667;53.036;6.740;2023-06-19T07:35:21;13.00;;;9.27;;
57832;SDS011;43667;53.036;6.740;2023-06-19T07:37:46;10.63;;;9.52;;
57832;SDS011;43667;53.036;6.740;2023-06-19T07:40:12;10.25;;;8.90;;
57832;SDS011;43667;53.036;6.740;2023-06-19T07:42:38;9.52;;;8.52;;
57832;SDS011;43667;53.036;6.740;2023-06-19T07:45:04;9.65;;;7.70;;
57832;SDS011;43667;53.036;6.740;2023-06-19T07:47:30;13.35;;;8.02;;
57832;SDS011;43667;53.036;6.740;2023-06-19T07:49:55;7.45;;;6.75;;
57832;SDS011;43667;53.036;6.740;2023-06-19T07:52:21;7.97;;;7.18;;
57832;SDS011;43667;53.036;6.740;2023-06-19T07:54:53;10.60;;;6.80;;
57832;SDS011;43667;53.036;6.740;2023-06-19T07:57:20;7.20;;;6.50;;
57832;SDS011;43667;53.036;6.740;2023-06-19T07:59:48;7.22;;;6.10;;
57832;SDS011;43667;53.036;6.740;2023-06-19T08:02:14;6.70;;;6.07;;
57832;SDS011;43667;53.036;6.740;2023-06-19T08:04:40;6.00;;;5.40;;
57832;SDS011;43667;53.036;6.740;2023-06-19T08:07:05;6.55;;;5.07;;
57832;SDS011;43667;53.036;6.740;2023-06-19T08:09:31;7.63;;;4.63;;
57832;SDS011;43667;53.036;6.740;2023-06-19T08:11:57;4.28;;;3.85;;
57832;SDS011;43667;53.036;6.740;2023-06-19T08:14:23;4.88;;;3.88;;
57832;SDS011;43667;53.036;6.740;2023-06-19T08:16:48;6.40;;;4.03;;
57832;SDS011;43667;53.036;6.740;2023-06-19T08:19:14;4.43;;;3.35;;
57832;SDS011;43667;53.036;6.740;2023-06-19T08:21:40;4.88;;;3.70;;
57832;SDS011;43667;53.036;6.740;2023-06-19T08:24:05;5.85;;;3.40;;
57832;SDS011;43667;53.036;6.740;2023-06-19T08:26:34;3.45;;;3.05;;
57832;SDS011;43667;53.036;6.740;2023-06-19T08:28:59;5.32;;;4.20;;
57832;SDS011;43667;53.036;6.740;2023-06-19T08:31:28;4.38;;;3.13;;
57832;SDS011;43667;53.036;6.740;2023-06-19T08:33:54;5.43;;;3.10;;
57832;SDS011;43667;53.036;6.740;2023-06-19T08:36:20;4.75;;;2.65;;
57832;SDS011;43667;53.036;6.740;2023-06-19T08:38:46;2.92;;;2.60;;
57832;SDS011;43667;53.036;6.740;2023-06-19T08:41:15;3.42;;;2.53;;
57832;SDS011;43667;53.036;6.740;2023-06-19T08:43:43;2.22;;;2.00;;
57832;SDS011;43667;53.036;6.740;2023-06-19T08:46:10;4.15;;;2.42;;
57832;SDS011;43667;53.036;6.740;2023-06-19T08:48:37;3.85;;;2.67;;
57832;SDS011;43667;53.036;6.740;2023-06-19T08:51:04;4.57;;;2.75;;
57832;SDS011;43667;53.036;6.740;2023-06-19T08:53:33;3.20;;;2.58;;
57832;SDS011;43667;53.036;6.740;2023-06-19T08:56:02;4.63;;;2.45;;
57832;SDS011;43667;53.036;6.740;2023-06-19T08:58:28;4.13;;;2.85;;
57832;SDS011;43667;53.036;6.740;2023-06-19T09:00:54;4.68;;;2.90;;
57832;SDS011;43667;53.036;6.740;2023-06-19T09:03:22;5.05;;;2.85;;
57832;SDS011;43667;53.036;6.740;2023-06-19T09:05:48;3.25;;;2.70;;
57832;SDS011;43667;53.036;6.740;2023-06-19T09:08:15;5.57;;;3.30;;
57832;SDS011;43667;53.036;6.740;2023-06-19T09:10:42;4.18;;;2.40;;
57832;SDS011;43667;53.036;6.740;2023-06-19T09:13:08;6.88;;;3.20;;
57832;SDS011;43667;53.036;6.740;2023-06-19T09:15:34;5.28;;;2.78;;
57832;SDS011;43667;53.036;6.740;2023-06-19T09:20:28;6.30;;;3.08;;
57832;SDS011;43667;53.036;6.740;2023-06-19T09:22:57;5.15;;;3.35;;
57832;SDS011;43667;53.036;6.740;2023-06-19T09:25:24;4.65;;;3.35;;
57832;SDS011;43667;53.036;6.740;2023-06-19T09:27:51;4.53;;;3.28;;
57832;SDS011;43667;53.036;6.740;2023-06-19T09:30:18;5.47;;;3.13;;
57832;SDS011;43667;53.036;6.740;2023-06-19T09:32:43;4.18;;;3.10;;
57832;SDS011;43667;53.036;6.740;2023-06-19T09:35:09;5.05;;;3.50;;
57832;SDS011;43667;53.036;6.740;2023-06-19T09:37:34;5.95;;;3.22;;
57832;SDS011;43667;53.036;6.740;2023-06-19T09:40:03;6.63;;;3.35;;
57832;SDS011;43667;53.036;6.740;2023-06-19T09:42:37;6.30;;;3.03;;
57832;SDS011;43667;53.036;6.740;2023-06-19T09:45:04;4.88;;;3.20;;
57832;SDS011;43667;53.036;6.740;2023-06-19T09:47:32;5.60;;;3.80;;
57832;SDS011;43667;53.036;6.740;2023-06-19T09:50:02;3.97;;;3.50;;
57832;SDS011;43667;53.036;6.740;2023-06-19T09:52:29;6.38;;;4.25;;
57832;SDS011;43667;53.036;6.740;2023-06-19T09:54:55;6.03;;;4.30;;
57832;SDS011;43667;53.036;6.740;2023-06-19T09:57:21;5.95;;;4.50;;
57832;SDS011;43667;53.036;6.740;2023-06-19T09:59:48;9.52;;;5.85;;
57832;SDS011;43667;53.036;6.740;2023-06-19T10:02:18;9.05;;;6.22;;
57832;SDS011;43667;53.036;6.740;2023-06-19T10:04:46;7.38;;;5.95;;
57832;SDS011;43667;53.036;6.740;2023-06-19T10:07:19;7.63;;;6.50;;
57832;SDS011;43667;53.036;6.740;2023-06-19T10:09:59;9.32;;;6.88;;
57832;SDS011;43667;53.036;6.740;2023-06-19T10:12:38;11.07;;;6.10;;
57832;SDS011;43667;53.036;6.740;2023-06-19T10:15:09;11.88;;;5.93;;
57832;SDS011;43667;53.036;6.740;2023-06-19T10:17:35;8.18;;;5.43;;
57832;SDS011;43667;53.036;6.740;2023-06-19T10:20:00;11.30;;;5.75;;
57832;SDS011;43667;53.036;6.740;2023-06-19T10:22:30;6.35;;;5.00;;
57832;SDS011;43667;53.036;6.740;2023-06-19T10:24:56;6.63;;;4.90;;
57832;SDS011;43667;53.036;6.740;2023-06-19T10:27:22;7.82;;;4.75;;
57832;SDS011;43667;53.036;6.740;2023-06-19T10:29:52;5.28;;;4.07;;
57832;SDS011;43667;53.036;6.740;2023-06-19T10:32:19;6.20;;;4.38;;
57832;SDS011;43667;53.036;6.740;2023-06-19T10:34:46;6.20;;;4.28;;
57832;SDS011;43667;53.036;6.740;2023-06-19T10:37:13;5.35;;;4.50;;
57832;SDS011;43667;53.036;6.740;2023-06-19T10:39:38;5.28;;;4.43;;
57832;SDS011;43667;53.036;6.740;2023-06-19T10:42:05;5.63;;;4.25;;
57832;SDS011;43667;53.036;6.740;2023-06-19T10:44:32;6.53;;;4.90;;
57832;SDS011;43667;53.036;6.740;2023-06-19T10:46:58;6.65;;;5.18;;
57832;SDS011;43667;53.036;6.740;2023-06-19T10:49:23;4.88;;;4.43;;
57832;SDS011;43667;53.036;6.740;2023-06-19T10:51:49;7.55;;;5.40;;
57832;SDS011;43667;53.036;6.740;2023-06-19T10:54:15;7.20;;;5.78;;
57832;SDS011;43667;53.036;6.740;2023-06-19T10:56:41;6.18;;;5.50;;
57832;SDS011;43667;53.036;6.740;2023-06-19T10:59:09;6.63;;;5.45;;
57832;SDS011;43667;53.036;6.740;2023-06-19T11:01:43;6.85;;;5.72;;
57832;SDS011;43667;53.036;6.740;2023-06-19T11:04:12;5.95;;;5.35;;
57832;SDS011;43667;53.036;6.740;2023-06-19T11:06:39;8.50;;;5.95;;
57832;SDS011;43667;53.036;6.740;2023-06-19T11:09:06;9.07;;;5.60;;
57832;SDS011;43667;53.036;6.740;2023-06-19T11:11:46;5.78;;;4.53;;
57832;SDS011;43667;53.036;6.740;2023-06-19T11:14:13;6.72;;;5.03;;
57832;SDS011;43667;53.036;6.740;2023-06-19T11:16:41;7.30;;;5.70;;
57832;SDS011;43667;53.036;6.740;2023-06-19T11:19:13;8.93;;;4.72;;
57832;SDS011;43667;53.036;6.740;2023-06-19T11:21:47;6.53;;;4.53;;
57832;SDS011;43667;53.036;6.740;2023-06-19T11:24:14;5.50;;;4.35;;
57832;SDS011;43667;53.036;6.740;2023-06-19T11:26:41;5.40;;;4.82;;
57832;SDS011;43667;53.036;6.740;2023-06-19T11:29:18;6.57;;;4.65;;
57832;SDS011;43667;53.036;6.740;2023-06-19T11:31:48;6.03;;;3.88;;
57832;SDS011;43667;53.036;6.740;2023-06-19T11:34:14;4.95;;;4.05;;
57832;SDS011;43667;53.036;6.740;2023-06-19T11:36:41;7.22;;;5.50;;
57832;SDS011;43667;53.036;6.740;2023-06-19T11:39:11;7.80;;;4.50;;
57832;SDS011;43667;53.036;6.740;2023-06-19T11:41:40;6.63;;;4.82;;
57832;SDS011;43667;53.036;6.740;2023-06-19T11:44:08;7.70;;;5.13;;
57832;SDS011;43667;53.036;6.740;2023-06-19T11:46:35;9.05;;;5.28;;
57832;SDS011;43667;53.036;6.740;2023-06-19T11:49:35;5.07;;;4.60;;
57832;SDS011;43667;53.036;6.740;2023-06-19T11:51:57;7.32;;;5.13;;
57832;SDS011;43667;53.036;6.740;2023-06-19T11:54:26;7.63;;;5.45;;
57832;SDS011;43667;53.036;6.740;2023-06-19T11:56:51;6.65;;;5.10;;
57832;SDS011;43667;53.036;6.740;2023-06-19T11:59:17;8.88;;;5.35;;
57832;SDS011;43667;53.036;6.740;2023-06-19T12:01:43;6.82;;;5.00;;
57832;SDS011;43667;53.036;6.740;2023-06-19T12:04:08;6.90;;;5.65;;
57832;SDS011;43667;53.036;6.740;2023-06-19T12:06:34;6.00;;;5.20;;
57832;SDS011;43667;53.036;6.740;2023-06-19T12:09:02;8.15;;;4.95;;
57832;SDS011;43667;53.036;6.740;2023-06-19T12:11:29;8.05;;;5.05;;
57832;SDS011;43667;53.036;6.740;2023-06-19T12:13:55;6.53;;;4.97;;
57832;SDS011;43667;53.036;6.740;2023-06-19T12:16:22;6.20;;;4.97;;
57832;SDS011;43667;53.036;6.740;2023-06-19T12:18:48;8.68;;;5.25;;
57832;SDS011;43667;53.036;6.740;2023-06-19T12:21:13;10.90;;;5.55;;
57832;SDS011;43667;53.036;6.740;2023-06-19T12:23:39;7.28;;;5.38;;
57832;SDS011;43667;53.036;6.740;2023-06-19T12:26:05;10.30;;;5.35;;
57832;SDS011;43667;53.036;6.740;2023-06-19T12:28:30;7.70;;;5.55;;
57832;SDS011;43667;53.036;6.740;2023-06-19T12:30:56;6.00;;;5.22;;
57832;SDS011;43667;53.036;6.740;2023-06-19T12:33:23;7.13;;;4.68;;
57832;SDS011;43667;53.036;6.740;2023-06-19T12:35:49;5.22;;;4.00;;
57832;SDS011;43667;53.036;6.740;2023-06-19T12:38:15;6.30;;;4.47;;
57832;SDS011;43667;53.036;6.740;2023-06-19T12:40:40;6.93;;;5.13;;
57832;SDS011;43667;53.036;6.740;2023-06-19T12:43:06;8.23;;;5.53;;
57832;SDS011;43667;53.036;6.740;2023-06-19T12:45:32;7.40;;;5.40;;
57832;SDS011;43667;53.036;6.740;2023-06-19T12:47:58;6.72;;;6.03;;
57832;SDS011;43667;53.036;6.740;2023-06-19T12:50:23;8.18;;;5.40;;
57832;SDS011;43667;53.036;6.740;2023-06-19T12:52:50;8.45;;;5.57;;
57832;SDS011;43667;53.036;6.740;2023-06-19T12:55:15;8.10;;;5.93;;
57832;SDS011;43667;53.036;6.740;2023-06-19T12:57:41;8.18;;;5.20;;
57832;SDS011;43667;53.036;6.740;2023-06-19T13:00:11;9.60;;;6.40;;
57832;SDS011;43667;53.036;6.740;2023-06-19T13:02:38;6.40;;;4.88;;
57832;SDS011;43667;53.036;6.740;2023-06-19T13:05:08;7.68;;;5.30;;
57832;SDS011;43667;53.036;6.740;2023-06-19T13:07:34;9.55;;;5.05;;
57832;SDS011;43667;53.036;6.740;2023-06-19T13:09:59;8.45;;;5.53;;
57832;SDS011;43667;53.036;6.740;2023-06-19T13:12:25;7.63;;;5.28;;
57832;SDS011;43667;53.036;6.740;2023-06-19T13:14:51;8.52;;;5.50;;
57832;SDS011;43667;53.036;6.740;2023-06-19T13:17:17;10.88;;;5.00;;
57832;SDS011;43667;53.036;6.740;2023-06-19T13:19:44;10.55;;;5.13;;
57832;SDS011;43667;53.036;6.740;2023-06-19T13:22:10;9.07;;;4.82;;
57832;SDS011;43667;53.036;6.740;2023-06-19T13:24:35;7.05;;;4.88;;
57832;SDS011;43667;53.036;6.740;2023-06-19T13:27:01;7.07;;;5.00;;
57832;SDS011;43667;53.036;6.740;2023-06-19T13:29:27;6.63;;;4.25;;
57832;SDS011;43667;53.036;6.740;2023-06-19T13:31:53;7.63;;;4.97;;
57832;SDS011;43667;53.036;6.740;2023-06-19T13:34:18;7.53;;;4.70;;
57832;SDS011;43667;53.036;6.740;2023-06-19T13:36:46;6.75;;;5.15;;
57832;SDS011;43667;53.036;6.740;2023-06-19T13:39:12;9.30;;;3.95;;
57832;SDS011;43667;53.036;6.740;2023-06-19T13:41:38;6.55;;;4.30;;
57832;SDS011;43667;53.036;6.740;2023-06-19T13:44:04;5.50;;;4.38;;
57832;SDS011;43667;53.036;6.740;2023-06-19T13:46:32;6.80;;;4.60;;
57832;SDS011;43667;53.036;6.740;2023-06-19T13:48:58;5.78;;;4.20;;
57832;SDS011;43667;53.036;6.740;2023-06-19T13:51:24;6.43;;;4.20;;
57832;SDS011;43667;53.036;6.740;2023-06-19T13:53:50;4.97;;;3.78;;
57832;SDS011;43667;53.036;6.740;2023-06-19T13:56:17;6.63;;;4.75;;
57832;SDS011;43667;53.036;6.740;2023-06-19T13:58:42;6.20;;;5.40;;
57832;SDS011;43667;53.036;6.740;2023-06-19T14:01:08;6.45;;;4.80;;
57832;SDS011;43667;53.036;6.740;2023-06-19T14:03:36;10.75;;;5.28;;
57832;SDS011;43667;53.036;6.740;2023-06-19T14:06:04;6.53;;;4.78;;
57832;SDS011;43667;53.036;6.740;2023-06-19T14:08:30;5.93;;;4.75;;
57832;SDS011;43667;53.036;6.740;2023-06-19T14:10:56;5.68;;;4.10;;
57832;SDS011;43667;53.036;6.740;2023-06-19T14:13:21;4.72;;;4.10;;
57832;SDS011;43667;53.036;6.740;2023-06-19T14:15:47;8.60;;;3.92;;
57832;SDS011;43667;53.036;6.740;2023-06-19T14:18:13;5.65;;;4.38;;
57832;SDS011;43667;53.036;6.740;2023-06-19T14:20:39;5.88;;;4.15;;
57832;SDS011;43667;53.036;6.740;2023-06-19T14:23:06;8.40;;;4.95;;
57832;SDS011;43667;53.036;6.740;2023-06-19T14:25:35;10.27;;;5.35;;
57832;SDS011;43667;53.036;6.740;2023-06-19T14:28:00;9.55;;;4.07;;
57832;SDS011;43667;53.036;6.740;2023-06-19T14:30:27;8.98;;;3.78;;
57832;SDS011;43667;53.036;6.740;2023-06-19T14:32:53;7.38;;;5.03;;
57832;SDS011;43667;53.036;6.740;2023-06-19T14:35:18;6.38;;;4.40;;
57832;SDS011;43667;53.036;6.740;2023-06-19T14:37:44;10.10;;;3.95;;
57832;SDS011;43667;53.036;6.740;2023-06-19T14:40:13;6.18;;;3.97;;
57832;SDS011;43667;53.036;6.740;2023-06-19T14:42:38;6.18;;;3.85;;
57832;SDS011;43667;53.036;6.740;2023-06-19T14:45:04;3.95;;;3.50;;